Norwegian Jewel — C6TX6 — position and weather

sailwx.info

Track history (hours):
 
Tides and Currents Weather Stations Pressure Air Temp Water Temp Dewpoint Dewpoint Depression Visibility Wind Speed Wind Dir Waves Ship Positions

Norwegian Jewel

Last reported at 2019-Feb-16 02:59 UTC. Time now 2019-Feb-16 03:29 UTC.
Position S 27°23' E 153°10'.

Type: Passenger vessel. MMSI: 311827000.

Date/timePositionNaut miles runAvg speedWind from/ knotsBaromVisibWave heightAir tempDewpointWater temp
2019-Feb-16 02:59S 27°23' E 153°10'0 0.0
2019-Feb-16 02:29S 27°23' E 153°10'0 0.0
2019-Feb-16 01:59S 27°23' E 153°10'0 0.0
2019-Feb-16 01:29S 27°23' E 153°10'0 0.0
2019-Feb-16 00:59S 27°23' E 153°10'0 0.0
2019-Feb-16 00:29S 27°23' E 153°10'0 0.0
2019-Feb-15 23:59S 27°23' E 153°10'0 0.0
2019-Feb-15 23:29S 27°23' E 153°10'0 0.0
2019-Feb-15 22:59S 27°23' E 153°10'0 0.0
2019-Feb-15 22:29S 27°23' E 153°10'0 0.0
2019-Feb-15 21:59S 27°23' E 153°10'0 0.0
2019-Feb-15 21:29S 27°23' E 153°10'0 0.6
2019-Feb-15 21:01S 27°23' E 153°10'4 7.5
2019-Feb-15 20:31S 27°20' E 153°12'714.8
2019-Feb-15 20:00S 27°15' E 153°18'815.9
2019-Feb-15 19:30S 27°08' E 153°21'815.4
2019-Feb-15 19:00S 27°02' E 153°15'816.6
2019-Feb-15 18:30S 26°54' E 153°11'612.5
2019-Feb-15 18:00S 26°48' E 153°11'5 9.4
2019-Feb-15 17:26S 26°43' E 153°12'512.2
2019-Feb-15 17:00S 26°45' E 153°18'612.5
2019-Feb-15 16:30S 26°49' E 153°23'612.2
2019-Feb-15 16:00S 26°53' E 153°28'612.4
2019-Feb-15 15:30S 26°57' E 153°34'612.2
2019-Feb-15 15:00S 27°00' E 153°39'612.5
2019-Feb-15 14:30S 27°05' E 153°44'612.5
2019-Feb-15 14:00S 27°11' E 153°46'612.5
2019-Feb-15 13:30S 27°17' E 153°47'612.5
2019-Feb-15 13:00S 27°23' E 153°49'612.6
2019-Feb-15 12:30S 27°29' E 153°49'612.5
2019-Feb-15 12:00S 27°35' E 153°50'612.6
2019-Feb-15 11:30S 27°42' E 153°51'612.6
2019-Feb-15 11:00S 27°48' E 153°52'812.5
2019-Feb-15 10:24S 27°55' E 153°53'28312.4
2019-Feb-14 11:35S 32°33' E 152°49'112.8
2019-Feb-14 11:30S 32°34' E 152°48'612.5
2019-Feb-14 11:00S 32°39' E 152°44'612.5
2019-Feb-14 10:30S 32°43' E 152°39'612.4
2019-Feb-14 10:00S 32°48' E 152°34'612.4
2019-Feb-14 09:30S 32°49' E 152°27'612.4
2019-Feb-14 09:00S 32°50' E 152°20'612.5
2019-Feb-14 08:30S 32°51' E 152°12'612.3
2019-Feb-14 08:00S 32°52' E 152°05'612.6
2019-Feb-14 07:30S 32°54' E 151°58'612.3
2019-Feb-14 07:00S 32°56' E 151°51'3 6.0
2019-Feb-14 06:30S 32°55' E 151°47'1 1.5
2019-Feb-14 06:00S 32°55' E 151°47'0 0.0
2019-Feb-14 05:30S 32°55' E 151°47'0 0.0
2019-Feb-14 05:00S 32°55' E 151°47'0 0.0
2019-Feb-14 04:30S 32°55' E 151°47'0 0.0
2019-Feb-14 04:00S 32°55' E 151°47'0 0.0
2019-Feb-14 03:00S 32°55' E 151°47'0 0.0
2019-Feb-14 02:30S 32°55' E 151°47'0 0.0
2019-Feb-14 02:00S 32°55' E 151°47'0 0.0
2019-Feb-14 01:30S 32°55' E 151°47'0 0.0
2019-Feb-14 01:00S 32°55' E 151°47'0 0.0
2019-Feb-14 00:30S 32°55' E 151°47'0 0.0
2019-Feb-14 00:00S 32°55' E 151°47'0 0.0
2019-Feb-13 23:30S 32°55' E 151°47'0 0.0
2019-Feb-13 23:00S 32°55' E 151°47'0 0.0
2019-Feb-13 22:30S 32°55' E 151°47'0 0.0
2019-Feb-13 22:00S 32°55' E 151°47'0 0.0
2019-Feb-13 21:30S 32°55' E 151°47'0 0.0
2019-Feb-13 21:00S 32°55' E 151°47'0 0.0
2019-Feb-13 20:30S 32°55' E 151°47'0 0.2
2019-Feb-13 20:00S 32°55' E 151°47'2 4.7
2019-Feb-13 19:30S 32°54' E 151°49'510.3
2019-Feb-13 19:00S 32°59' E 151°53'4 8.5
2019-Feb-13 18:31S 33°03' E 151°54'4 8.2
2019-Feb-13 18:01S 33°06' E 151°56'4 8.6
2019-Feb-13 17:31S 33°10' E 151°58'4 9.0
2019-Feb-13 17:01S 33°15' E 151°59'37 8.1
2019-Feb-13 12:31S 33°51' E 152°03'1 9.3
2019-Feb-13 12:22S 33°51' E 152°01'3 9.1
2019-Feb-13 12:00S 33°51' E 151°57'4 9.2
2019-Feb-13 11:30S 33°52' E 151°52'5 9.2
2019-Feb-13 11:00S 33°52' E 151°46'5 9.2
2019-Feb-13 10:30S 33°52' E 151°41'5 9.1
2019-Feb-13 10:00S 33°52' E 151°35'612.2
2019-Feb-13 09:31S 33°52' E 151°28'5 9.0
2019-Feb-13 09:01S 33°51' E 151°22'4 8.4
2019-Feb-13 08:31S 33°50' E 151°18'4 8.3
2019-Feb-13 08:00S 33°51' E 151°13'0 0.7
2019-Feb-13 07:29S 33°52' E 151°13'0 0.0
2019-Feb-13 06:59S 33°52' E 151°13'0 0.0
2019-Feb-13 06:29S 33°52' E 151°13'0 0.0
2019-Feb-13 05:47S 33°52' E 151°13'0 0.0
2019-Feb-13 05:26S 33°52' E 151°13'0 0.0
2019-Feb-13 04:59S 33°52' E 151°13'0 0.0
2019-Feb-13 04:29S 33°52' E 151°13'0 0.0
2019-Feb-13 03:56S 33°52' E 151°13'0 0.0
2019-Feb-13 03:26S 33°52' E 151°13'0 0.0
2019-Feb-13 02:56S 33°52' E 151°13'0 0.0
2019-Feb-13 02:26S 33°52' E 151°13'0 0.0
2019-Feb-13 01:59S 33°52' E 151°13'0 0.0
2019-Feb-13 01:29S 33°52' E 151°13'0 0.0
2019-Feb-13 00:59S 33°52' E 151°13'0 0.0
2019-Feb-13 00:26S 33°52' E 151°13'0 0.0
2019-Feb-12 23:59S 33°52' E 151°13'0 0.0
2019-Feb-12 23:29S 33°52' E 151°13'0 0.0
2019-Feb-12 22:56S 33°52' E 151°13'0 0.0
2019-Feb-12 22:26S 33°52' E 151°13'0 0.0
2019-Feb-12 21:59S 33°52' E 151°13'0 0.0
2019-Feb-12 21:29S 33°52' E 151°13'0 0.0
2019-Feb-12 20:59S 33°52' E 151°13'0 0.0
2019-Feb-12 20:29S 33°52' E 151°13'0 0.0
2019-Feb-12 19:53S 33°52' E 151°13'0 0.0
2019-Feb-12 19:26S 33°52' E 151°13'0 0.0
2019-Feb-12 18:59S 33°52' E 151°13'1 2.2
2019-Feb-12 18:30S 33°51' E 151°14'4 8.9
2019-Feb-12 18:00S 33°50' E 151°19'611.4
2019-Feb-12 17:30S 33°51' E 151°26'714.4
2019-Feb-12 17:01S 33°51' E 151°34'815.1
2019-Feb-12 16:30S 33°51' E 151°43'816.0
2019-Feb-12 16:00S 33°51' E 151°53'816.6
2019-Feb-12 15:31S 33°51' E 152°03'816.7
2019-Feb-12 15:00S 33°51' E 152°13'816.9
2019-Feb-12 14:31S 33°51' E 152°23'917.1
2019-Feb-12 14:01S 33°51' E 152°34'816.8
2019-Feb-12 13:31S 33°51' E 152°44'917.9
2019-Feb-12 13:01S 33°51' E 152°54'1121.4
2019-Feb-12 12:31S 33°51' E 153°07'1121.2
2019-Feb-12 12:01S 33°51' E 153°20'1121.3
2019-Feb-12 11:31S 33°51' E 153°33'1121.0
2019-Feb-12 11:01S 33°51' E 153°46'1020.7
2019-Feb-12 10:31S 33°51' E 153°58'1020.3
2019-Feb-12 10:01S 33°51' E 154°10'1020.1
2019-Feb-12 09:30S 33°51' E 154°23'1019.6
2019-Feb-12 09:00S 33°52' E 154°34'1019.0
2019-Feb-12 08:30S 33°52' E 154°46'918.8
2019-Feb-12 08:00S 33°52' E 154°57'918.9
2019-Feb-12 07:30S 33°52' E 155°09'98318.9
2019-Feb-10 03:34S 36°13' E 174°56'115.0
2019-Feb-10 03:30S 36°15' E 174°56'714.0
2019-Feb-10 03:00S 36°21' E 174°57'714.1
2019-Feb-10 02:30S 36°28' E 174°59'714.0
2019-Feb-10 02:00S 36°35' E 174°58'713.9
2019-Feb-10 01:30S 36°41' E 174°54'713.2
2019-Feb-10 01:00S 36°46' E 174°49'4 8.2
2019-Feb-10 00:30S 36°50' E 174°47'1 1.9
2019-Feb-10 00:00S 36°50' E 174°46'0 0.0
2019-Feb-09 23:30S 36°50' E 174°46'0 0.0
2019-Feb-09 23:00S 36°50' E 174°46'0 0.0
2019-Feb-09 22:27S 36°50' E 174°46'0 0.0
2019-Feb-09 22:00S 36°50' E 174°46'0 0.0
2019-Feb-09 21:30S 36°50' E 174°46'0 0.0
2019-Feb-09 20:54S 36°50' E 174°46'0 0.0
2019-Feb-09 20:30S 36°50' E 174°46'0 0.0
2019-Feb-09 20:00S 36°50' E 174°46'0 0.0
2019-Feb-09 19:30S 36°50' E 174°46'0 0.0
2019-Feb-09 19:00S 36°50' E 174°46'0 0.0
2019-Feb-09 18:30S 36°50' E 174°46'0 0.0
2019-Feb-09 18:00S 36°50' E 174°46'0 0.0
2019-Feb-09 17:30S 36°50' E 174°46'0 0.0
2019-Feb-09 17:00S 36°50' E 174°46'0 0.1
2019-Feb-09 16:30S 36°50' E 174°46'0 0.3
2019-Feb-09 15:59S 36°51' E 174°46'0 0.0
2019-Feb-09 15:29S 36°51' E 174°46'0 0.0
2019-Feb-09 14:59S 36°51' E 174°46'0 0.0
2019-Feb-09 14:26S 36°51' E 174°46'0 0.0
2019-Feb-09 13:59S 36°51' E 174°46'0 0.0
2019-Feb-09 13:29S 36°51' E 174°46'0 0.0
2019-Feb-09 12:59S 36°51' E 174°46'0 0.0
2019-Feb-09 12:29S 36°51' E 174°46'0 0.0
2019-Feb-09 11:59S 36°51' E 174°46'0 0.0
2019-Feb-09 11:29S 36°51' E 174°46'0 0.0
2019-Feb-09 10:59S 36°51' E 174°46'0 0.0
2019-Feb-09 10:29S 36°51' E 174°46'0 0.0
2019-Feb-09 09:59S 36°51' E 174°46'0 0.0
2019-Feb-09 09:29S 36°51' E 174°46'0 0.0
2019-Feb-09 08:59S 36°51' E 174°46'0 0.0
2019-Feb-09 08:29S 36°51' E 174°46'0 0.0
2019-Feb-09 07:59S 36°51' E 174°46'0 0.0
2019-Feb-09 07:29S 36°51' E 174°46'0 0.0
2019-Feb-09 06:59S 36°51' E 174°46'0 0.0
2019-Feb-09 06:29S 36°51' E 174°46'0 0.0
2019-Feb-09 05:59S 36°51' E 174°46'0 0.0
2019-Feb-09 05:29S 36°51' E 174°46'0 0.0
2019-Feb-09 04:56S 36°51' E 174°46'0 0.0
2019-Feb-09 04:26S 36°51' E 174°46'0 0.0
2019-Feb-09 03:59S 36°51' E 174°46'0 0.0
2019-Feb-09 03:29S 36°51' E 174°46'0 0.0
2019-Feb-09 02:59S 36°51' E 174°46'0 0.0
2019-Feb-09 02:29S 36°51' E 174°46'0 0.0
2019-Feb-09 01:56S 36°51' E 174°46'0 0.0
2019-Feb-09 01:23S 36°51' E 174°46'0 0.0
2019-Feb-09 00:59S 36°51' E 174°46'0 0.0
2019-Feb-09 00:29S 36°51' E 174°46'0 0.0
2019-Feb-08 23:59S 36°51' E 174°46'0 0.0
2019-Feb-08 23:29S 36°51' E 174°46'0 0.0
2019-Feb-08 22:59S 36°51' E 174°46'0 0.0
2019-Feb-08 22:29S 36°51' E 174°46'0 0.0
2019-Feb-08 21:59S 36°51' E 174°46'0 0.0
2019-Feb-08 21:29S 36°51' E 174°46'0 0.0
2019-Feb-08 20:59S 36°51' E 174°46'0 0.0
2019-Feb-08 20:29S 36°51' E 174°46'0 0.0
2019-Feb-08 19:59S 36°51' E 174°46'0 0.0
2019-Feb-08 19:29S 36°51' E 174°46'0 0.0
2019-Feb-08 18:59S 36°51' E 174°46'0 0.0
2019-Feb-08 18:29S 36°51' E 174°46'0 0.3
2019-Feb-08 18:00S 36°50' E 174°46'3 6.6
2019-Feb-08 17:31S 36°49' E 174°50'610.9
2019-Feb-08 17:00S 36°43' E 174°51'5 9.9
2019-Feb-08 16:30S 36°40' E 174°55'5 9.8
2019-Feb-08 16:00S 36°36' E 174°59'5 9.9
2019-Feb-08 15:30S 36°33' E 175°04'5 9.8
2019-Feb-08 15:00S 36°30' E 175°09'73 9.4
2019-Feb-08 07:13S 37°06' E 176°28'211.6
2019-Feb-08 07:00S 37°08' E 176°28'613.0
2019-Feb-08 06:31S 37°14' E 176°26'612.8
2019-Feb-08 06:01S 37°20' E 176°23'612.9
2019-Feb-08 05:31S 37°25' E 176°18'713.0
2019-Feb-08 05:00S 37°31' E 176°14'611.6
2019-Feb-08 04:30S 37°36' E 176°11'2 4.3
2019-Feb-08 03:59S 37°39' E 176°11'0 0.0
2019-Feb-08 03:29S 37°39' E 176°11'0 0.0
2019-Feb-08 02:59S 37°39' E 176°11'0 0.0
2019-Feb-08 02:29S 37°39' E 176°11'0 0.0
2019-Feb-08 01:59S 37°39' E 176°11'0 0.0
2019-Feb-08 01:29S 37°39' E 176°11'0 0.0
2019-Feb-08 00:59S 37°39' E 176°11'0 0.0
2019-Feb-08 00:29S 37°39' E 176°11'0 0.0
2019-Feb-07 23:59S 37°39' E 176°11'0 0.0
2019-Feb-07 23:29S 37°39' E 176°11'0 0.0
2019-Feb-07 22:59S 37°39' E 176°11'0 0.0
2019-Feb-07 22:29S 37°39' E 176°11'0 0.0
2019-Feb-07 21:59S 37°39' E 176°11'0 0.0
2019-Feb-07 21:29S 37°39' E 176°11'0 0.0
2019-Feb-07 20:59S 37°39' E 176°11'0 0.0
2019-Feb-07 20:29S 37°39' E 176°11'0 0.0
2019-Feb-07 19:59S 37°39' E 176°11'0 0.0
2019-Feb-07 19:29S 37°39' E 176°11'0 0.0
2019-Feb-07 18:59S 37°39' E 176°11'0 0.0
2019-Feb-07 18:29S 37°39' E 176°11'0 0.0
2019-Feb-07 17:59S 37°39' E 176°11'0 0.1
2019-Feb-07 17:30S 37°39' E 176°11'4 8.1
2019-Feb-07 17:00S 37°35' E 176°12'713.6
2019-Feb-07 16:31S 37°30' E 176°18'918.2
2019-Feb-07 16:01S 37°28' E 176°29'1121.5
2019-Feb-07 15:31S 37°26' E 176°42'1121.5
2019-Feb-07 15:01S 37°25' E 176°56'1121.2
2019-Feb-07 14:30S 37°23' E 177°09'918.0
2019-Feb-07 14:01S 37°24' E 177°20'917.9
2019-Feb-07 13:30S 37°24' E 177°32'918.0
2019-Feb-07 13:01S 37°25' E 177°43'2317.9
2019-Feb-07 11:43S 37°27' E 178°12'5217.4
2019-Feb-07 08:42S 38°14' E 178°41'25510.6
2019-Feb-06 08:45S 41°40' E 175°25'520.3
2019-Feb-06 08:30S 41°42' E 175°19'918.9
2019-Feb-06 08:00S 41°38' E 175°08'1019.5
2019-Feb-06 07:30S 41°33' E 174°56'1019.0
2019-Feb-06 07:00S 41°25' E 174°48'712.4
2019-Feb-06 06:28S 41°19' E 174°51'4 8.7
2019-Feb-06 06:00S 41°16' E 174°47'0 0.3
2019-Feb-06 05:26S 41°16' E 174°47'0 0.0
2019-Feb-06 04:59S 41°16' E 174°47'0 0.0
2019-Feb-06 04:20S 41°16' E 174°47'0 0.0
2019-Feb-06 03:56S 41°16' E 174°47'0 0.0
2019-Feb-06 03:26S 41°16' E 174°47'  
Track history (hours):
 
Tides and Currents Weather Stations Pressure Air Temp Water Temp Dewpoint Dewpoint Depression Visibility Wind Speed Wind Dir Waves Ship Positions

Norwegian Jewel

Last reported at 2019-Feb-16 02:59 UTC. Time now 2019-Feb-16 03:29 UTC.
Position S 27°23' E 153°10'.

Type: Passenger vessel. MMSI: 311827000.

Date/timePositionNaut miles runAvg speedWind from/ knotsBaromVisibWave heightAir tempDewpointWater temp
2019-Feb-16 02:59S 27°23' E 153°10'0 0.0
2019-Feb-16 02:29S 27°23' E 153°10'0 0.0
2019-Feb-16 01:59S 27°23' E 153°10'0 0.0
2019-Feb-16 01:29S 27°23' E 153°10'0 0.0
2019-Feb-16 00:59S 27°23' E 153°10'0 0.0
2019-Feb-16 00:29S 27°23' E 153°10'0 0.0
2019-Feb-15 23:59S 27°23' E 153°10'0 0.0
2019-Feb-15 23:29S 27°23' E 153°10'0 0.0
2019-Feb-15 22:59S 27°23' E 153°10'0 0.0
2019-Feb-15 22:29S 27°23' E 153°10'0 0.0
2019-Feb-15 21:59S 27°23' E 153°10'0 0.0
2019-Feb-15 21:29S 27°23' E 153°10'0 0.6
2019-Feb-15 21:01S 27°23' E 153°10'4 7.5
2019-Feb-15 20:31S 27°20' E 153°12'714.8
2019-Feb-15 20:00S 27°15' E 153°18'815.9
2019-Feb-15 19:30S 27°08' E 153°21'815.4
2019-Feb-15 19:00S 27°02' E 153°15'816.6
2019-Feb-15 18:30S 26°54' E 153°11'612.5
2019-Feb-15 18:00S 26°48' E 153°11'5 9.4
2019-Feb-15 17:26S 26°43' E 153°12'512.2
2019-Feb-15 17:00S 26°45' E 153°18'612.5
2019-Feb-15 16:30S 26°49' E 153°23'612.2
2019-Feb-15 16:00S 26°53' E 153°28'612.4
2019-Feb-15 15:30S 26°57' E 153°34'612.2
2019-Feb-15 15:00S 27°00' E 153°39'612.5
2019-Feb-15 14:30S 27°05' E 153°44'612.5
2019-Feb-15 14:00S 27°11' E 153°46'612.5
2019-Feb-15 13:30S 27°17' E 153°47'612.5
2019-Feb-15 13:00S 27°23' E 153°49'612.6
2019-Feb-15 12:30S 27°29' E 153°49'612.5
2019-Feb-15 12:00S 27°35' E 153°50'612.6
2019-Feb-15 11:30S 27°42' E 153°51'612.6
2019-Feb-15 11:00S 27°48' E 153°52'812.5
2019-Feb-15 10:24S 27°55' E 153°53'28312.4
2019-Feb-14 11:35S 32°33' E 152°49'112.8
2019-Feb-14 11:30S 32°34' E 152°48'612.5
2019-Feb-14 11:00S 32°39' E 152°44'612.5
2019-Feb-14 10:30S 32°43' E 152°39'612.4
2019-Feb-14 10:00S 32°48' E 152°34'612.4
2019-Feb-14 09:30S 32°49' E 152°27'612.4
2019-Feb-14 09:00S 32°50' E 152°20'612.5
2019-Feb-14 08:30S 32°51' E 152°12'612.3
2019-Feb-14 08:00S 32°52' E 152°05'612.6
2019-Feb-14 07:30S 32°54' E 151°58'612.3
2019-Feb-14 07:00S 32°56' E 151°51'3 6.0
2019-Feb-14 06:30S 32°55' E 151°47'1 1.5
2019-Feb-14 06:00S 32°55' E 151°47'0 0.0
2019-Feb-14 05:30S 32°55' E 151°47'0 0.0
2019-Feb-14 05:00S 32°55' E 151°47'0 0.0
2019-Feb-14 04:30S 32°55' E 151°47'0 0.0
2019-Feb-14 04:00S 32°55' E 151°47'0 0.0
2019-Feb-14 03:00S 32°55' E 151°47'0 0.0
2019-Feb-14 02:30S 32°55' E 151°47'0 0.0
2019-Feb-14 02:00S 32°55' E 151°47'0 0.0
2019-Feb-14 01:30S 32°55' E 151°47'0 0.0
2019-Feb-14 01:00S 32°55' E 151°47'0 0.0
2019-Feb-14 00:30S 32°55' E 151°47'0 0.0
2019-Feb-14 00:00S 32°55' E 151°47'0 0.0
2019-Feb-13 23:30S 32°55' E 151°47'0 0.0
2019-Feb-13 23:00S 32°55' E 151°47'0 0.0
2019-Feb-13 22:30S 32°55' E 151°47'0 0.0
2019-Feb-13 22:00S 32°55' E 151°47'0 0.0
2019-Feb-13 21:30S 32°55' E 151°47'0 0.0
2019-Feb-13 21:00S 32°55' E 151°47'0 0.0
2019-Feb-13 20:30S 32°55' E 151°47'0 0.2
2019-Feb-13 20:00S 32°55' E 151°47'2 4.7
2019-Feb-13 19:30S 32°54' E 151°49'510.3
2019-Feb-13 19:00S 32°59' E 151°53'4 8.5
2019-Feb-13 18:31S 33°03' E 151°54'4 8.2
2019-Feb-13 18:01S 33°06' E 151°56'4 8.6
2019-Feb-13 17:31S 33°10' E 151°58'4 9.0
2019-Feb-13 17:01S 33°15' E 151°59'37 8.1
2019-Feb-13 12:31S 33°51' E 152°03'1 9.3
2019-Feb-13 12:22S 33°51' E 152°01'3 9.1
2019-Feb-13 12:00S 33°51' E 151°57'4 9.2
2019-Feb-13 11:30S 33°52' E 151°52'5 9.2
2019-Feb-13 11:00S 33°52' E 151°46'5 9.2
2019-Feb-13 10:30S 33°52' E 151°41'5 9.1
2019-Feb-13 10:00S 33°52' E 151°35'612.2
2019-Feb-13 09:31S 33°52' E 151°28'5 9.0
2019-Feb-13 09:01S 33°51' E 151°22'4 8.4
2019-Feb-13 08:31S 33°50' E 151°18'4 8.3
2019-Feb-13 08:00S 33°51' E 151°13'0 0.7
2019-Feb-13 07:29S 33°52' E 151°13'0 0.0
2019-Feb-13 06:59S 33°52' E 151°13'0 0.0
2019-Feb-13 06:29S 33°52' E 151°13'0 0.0
2019-Feb-13 05:47S 33°52' E 151°13'0 0.0
2019-Feb-13 05:26S 33°52' E 151°13'0 0.0
2019-Feb-13 04:59S 33°52' E 151°13'0 0.0
2019-Feb-13 04:29S 33°52' E 151°13'0 0.0
2019-Feb-13 03:56S 33°52' E 151°13'0 0.0
2019-Feb-13 03:26S 33°52' E 151°13'0 0.0
2019-Feb-13 02:56S 33°52' E 151°13'0 0.0
2019-Feb-13 02:26S 33°52' E 151°13'0 0.0
2019-Feb-13 01:59S 33°52' E 151°13'0 0.0
2019-Feb-13 01:29S 33°52' E 151°13'0 0.0
2019-Feb-13 00:59S 33°52' E 151°13'0 0.0
2019-Feb-13 00:26S 33°52' E 151°13'0 0.0
2019-Feb-12 23:59S 33°52' E 151°13'0 0.0
2019-Feb-12 23:29S 33°52' E 151°13'0 0.0
2019-Feb-12 22:56S 33°52' E 151°13'0 0.0
2019-Feb-12 22:26S 33°52' E 151°13'0 0.0
2019-Feb-12 21:59S 33°52' E 151°13'0 0.0
2019-Feb-12 21:29S 33°52' E 151°13'0 0.0
2019-Feb-12 20:59S 33°52' E 151°13'0 0.0
2019-Feb-12 20:29S 33°52' E 151°13'0 0.0
2019-Feb-12 19:53S 33°52' E 151°13'0 0.0
2019-Feb-12 19:26S 33°52' E 151°13'0 0.0
2019-Feb-12 18:59S 33°52' E 151°13'1 2.2
2019-Feb-12 18:30S 33°51' E 151°14'4 8.9
2019-Feb-12 18:00S 33°50' E 151°19'611.4
2019-Feb-12 17:30S 33°51' E 151°26'714.4
2019-Feb-12 17:01S 33°51' E 151°34'815.1
2019-Feb-12 16:30S 33°51' E 151°43'816.0
2019-Feb-12 16:00S 33°51' E 151°53'816.6
2019-Feb-12 15:31S 33°51' E 152°03'816.7
2019-Feb-12 15:00S 33°51' E 152°13'816.9
2019-Feb-12 14:31S 33°51' E 152°23'917.1
2019-Feb-12 14:01S 33°51' E 152°34'816.8
2019-Feb-12 13:31S 33°51' E 152°44'917.9
2019-Feb-12 13:01S 33°51' E 152°54'1121.4
2019-Feb-12 12:31S 33°51' E 153°07'1121.2
2019-Feb-12 12:01S 33°51' E 153°20'1121.3
2019-Feb-12 11:31S 33°51' E 153°33'1121.0
2019-Feb-12 11:01S 33°51' E 153°46'1020.7
2019-Feb-12 10:31S 33°51' E 153°58'1020.3
2019-Feb-12 10:01S 33°51' E 154°10'1020.1
2019-Feb-12 09:30S 33°51' E 154°23'1019.6
2019-Feb-12 09:00S 33°52' E 154°34'1019.0
2019-Feb-12 08:30S 33°52' E 154°46'918.8
2019-Feb-12 08:00S 33°52' E 154°57'918.9
2019-Feb-12 07:30S 33°52' E 155°09'98318.9
2019-Feb-10 03:34S 36°13' E 174°56'115.0
2019-Feb-10 03:30S 36°15' E 174°56'714.0
2019-Feb-10 03:00S 36°21' E 174°57'714.1
2019-Feb-10 02:30S 36°28' E 174°59'714.0
2019-Feb-10 02:00S 36°35' E 174°58'713.9
2019-Feb-10 01:30S 36°41' E 174°54'713.2
2019-Feb-10 01:00S 36°46' E 174°49'4 8.2
2019-Feb-10 00:30S 36°50' E 174°47'1 1.9
2019-Feb-10 00:00S 36°50' E 174°46'0 0.0
2019-Feb-09 23:30S 36°50' E 174°46'0 0.0
2019-Feb-09 23:00S 36°50' E 174°46'0 0.0
2019-Feb-09 22:27S 36°50' E 174°46'0 0.0
2019-Feb-09 22:00S 36°50' E 174°46'0 0.0
2019-Feb-09 21:30S 36°50' E 174°46'0 0.0
2019-Feb-09 20:54S 36°50' E 174°46'0 0.0
2019-Feb-09 20:30S 36°50' E 174°46'0 0.0
2019-Feb-09 20:00S 36°50' E 174°46'0 0.0
2019-Feb-09 19:30S 36°50' E 174°46'0 0.0
2019-Feb-09 19:00S 36°50' E 174°46'0 0.0
2019-Feb-09 18:30S 36°50' E 174°46'0 0.0
2019-Feb-09 18:00S 36°50' E 174°46'0 0.0
2019-Feb-09 17:30S 36°50' E 174°46'0 0.0
2019-Feb-09 17:00S 36°50' E 174°46'0 0.1
2019-Feb-09 16:30S 36°50' E 174°46'0 0.3
2019-Feb-09 15:59S 36°51' E 174°46'0 0.0
2019-Feb-09 15:29S 36°51' E 174°46'0 0.0
2019-Feb-09 14:59S 36°51' E 174°46'0 0.0
2019-Feb-09 14:26S 36°51' E 174°46'0 0.0
2019-Feb-09 13:59S 36°51' E 174°46'0 0.0
2019-Feb-09 13:29S 36°51' E 174°46'0 0.0
2019-Feb-09 12:59S 36°51' E 174°46'0 0.0
2019-Feb-09 12:29S 36°51' E 174°46'0 0.0
2019-Feb-09 11:59S 36°51' E 174°46'0 0.0
2019-Feb-09 11:29S 36°51' E 174°46'0 0.0
2019-Feb-09 10:59S 36°51' E 174°46'0 0.0
2019-Feb-09 10:29S 36°51' E 174°46'0 0.0
2019-Feb-09 09:59S 36°51' E 174°46'0 0.0
2019-Feb-09 09:29S 36°51' E 174°46'0 0.0
2019-Feb-09 08:59S 36°51' E 174°46'0 0.0
2019-Feb-09 08:29S 36°51' E 174°46'0 0.0
2019-Feb-09 07:59S 36°51' E 174°46'0 0.0
2019-Feb-09 07:29S 36°51' E 174°46'0 0.0
2019-Feb-09 06:59S 36°51' E 174°46'0 0.0
2019-Feb-09 06:29S 36°51' E 174°46'0 0.0
2019-Feb-09 05:59S 36°51' E 174°46'0 0.0
2019-Feb-09 05:29S 36°51' E 174°46'0 0.0
2019-Feb-09 04:56S 36°51' E 174°46'0 0.0
2019-Feb-09 04:26S 36°51' E 174°46'0 0.0
2019-Feb-09 03:59S 36°51' E 174°46'0 0.0
2019-Feb-09 03:29S 36°51' E 174°46'0 0.0
2019-Feb-09 02:59S 36°51' E 174°46'0 0.0
2019-Feb-09 02:29S 36°51' E 174°46'0 0.0
2019-Feb-09 01:56S 36°51' E 174°46'0 0.0
2019-Feb-09 01:23S 36°51' E 174°46'0 0.0
2019-Feb-09 00:59S 36°51' E 174°46'0 0.0
2019-Feb-09 00:29S 36°51' E 174°46'0 0.0
2019-Feb-08 23:59S 36°51' E 174°46'0 0.0
2019-Feb-08 23:29S 36°51' E 174°46'0 0.0
2019-Feb-08 22:59S 36°51' E 174°46'0 0.0
2019-Feb-08 22:29S 36°51' E 174°46'0 0.0
2019-Feb-08 21:59S 36°51' E 174°46'0 0.0
2019-Feb-08 21:29S 36°51' E 174°46'0 0.0
2019-Feb-08 20:59S 36°51' E 174°46'0 0.0
2019-Feb-08 20:29S 36°51' E 174°46'0 0.0
2019-Feb-08 19:59S 36°51' E 174°46'0 0.0
2019-Feb-08 19:29S 36°51' E 174°46'0 0.0
2019-Feb-08 18:59S 36°51' E 174°46'0 0.0
2019-Feb-08 18:29S 36°51' E 174°46'0 0.3
2019-Feb-08 18:00S 36°50' E 174°46'3 6.6
2019-Feb-08 17:31S 36°49' E 174°50'610.9
2019-Feb-08 17:00S 36°43' E 174°51'5 9.9
2019-Feb-08 16:30S 36°40' E 174°55'5 9.8
2019-Feb-08 16:00S 36°36' E 174°59'5 9.9
2019-Feb-08 15:30S 36°33' E 175°04'5 9.8
2019-Feb-08 15:00S 36°30' E 175°09'73 9.4
2019-Feb-08 07:13S 37°06' E 176°28'211.6
2019-Feb-08 07:00S 37°08' E 176°28'613.0
2019-Feb-08 06:31S 37°14' E 176°26'612.8
2019-Feb-08 06:01S 37°20' E 176°23'612.9
2019-Feb-08 05:31S 37°25' E 176°18'713.0
2019-Feb-08 05:00S 37°31' E 176°14'611.6
2019-Feb-08 04:30S 37°36' E 176°11'2 4.3
2019-Feb-08 03:59S 37°39' E 176°11'0 0.0
2019-Feb-08 03:29S 37°39' E 176°11'0 0.0
2019-Feb-08 02:59S 37°39' E 176°11'0 0.0
2019-Feb-08 02:29S 37°39' E 176°11'0 0.0
2019-Feb-08 01:59S 37°39' E 176°11'0 0.0
2019-Feb-08 01:29S 37°39' E 176°11'0 0.0
2019-Feb-08 00:59S 37°39' E 176°11'0 0.0
2019-Feb-08 00:29S 37°39' E 176°11'0 0.0
2019-Feb-07 23:59S 37°39' E 176°11'0 0.0
2019-Feb-07 23:29S 37°39' E 176°11'0 0.0
2019-Feb-07 22:59S 37°39' E 176°11'0 0.0
2019-Feb-07 22:29S 37°39' E 176°11'0 0.0
2019-Feb-07 21:59S 37°39' E 176°11'0 0.0
2019-Feb-07 21:29S 37°39' E 176°11'0 0.0
2019-Feb-07 20:59S 37°39' E 176°11'0 0.0
2019-Feb-07 20:29S 37°39' E 176°11'0 0.0
2019-Feb-07 19:59S 37°39' E 176°11'0 0.0
2019-Feb-07 19:29S 37°39' E 176°11'0 0.0
2019-Feb-07 18:59S 37°39' E 176°11'0 0.0
2019-Feb-07 18:29S 37°39' E 176°11'0 0.0
2019-Feb-07 17:59S 37°39' E 176°11'0 0.1
2019-Feb-07 17:30S 37°39' E 176°11'4 8.1
2019-Feb-07 17:00S 37°35' E 176°12'713.6
2019-Feb-07 16:31S 37°30' E 176°18'918.2
2019-Feb-07 16:01S 37°28' E 176°29'1121.5
2019-Feb-07 15:31S 37°26' E 176°42'1121.5
2019-Feb-07 15:01S 37°25' E 176°56'1121.2
2019-Feb-07 14:30S 37°23' E 177°09'918.0
2019-Feb-07 14:01S 37°24' E 177°20'917.9
2019-Feb-07 13:30S 37°24' E 177°32'918.0
2019-Feb-07 13:01S 37°25' E 177°43'2317.9
2019-Feb-07 11:43S 37°27' E 178°12'5217.4
2019-Feb-07 08:42S 38°14' E 178°41'25510.6
2019-Feb-06 08:45S 41°40' E 175°25'520.3
2019-Feb-06 08:30S 41°42' E 175°19'918.9
2019-Feb-06 08:00S 41°38' E 175°08'1019.5
2019-Feb-06 07:30S 41°33' E 174°56'1019.0
2019-Feb-06 07:00S 41°25' E 174°48'712.4
2019-Feb-06 06:28S 41°19' E 174°51'4 8.7
2019-Feb-06 06:00S 41°16' E 174°47'0 0.3
2019-Feb-06 05:26S 41°16' E 174°47'0 0.0
2019-Feb-06 04:59S 41°16' E 174°47'0 0.0
2019-Feb-06 04:20S 41°16' E 174°47'0 0.0
2019-Feb-06 03:56S 41°16' E 174°47'0 0.0
2019-Feb-06 03:26S 41°16' E 174°47'  

Dump ship's entire track history